createdAt,value
2023-01-02T00:01:07.147Z,1.00
2023-01-02T00:06:04.437Z,1.00
2023-01-02T00:08:33.920Z,1.00
2023-01-02T00:11:02.037Z,14.00
2023-01-02T00:13:30.158Z,1.00
2023-01-02T00:15:58.340Z,46.90
2023-01-02T00:18:26.449Z,89.60
2023-01-02T00:23:22.922Z,68.30
2023-01-02T00:25:52.423Z,34.00
2023-01-02T00:28:20.592Z,91.00
2023-01-02T00:30:48.711Z,99.90
2023-01-02T00:33:16.900Z,99.90
2023-01-02T00:35:45.079Z,99.90
2023-01-02T00:38:13.233Z,99.90
2023-01-02T00:40:41.703Z,99.90
2023-01-02T00:43:11.218Z,99.90
2023-01-02T00:45:39.320Z,99.90
2023-01-02T00:48:07.459Z,99.90
2023-01-02T00:50:35.550Z,1.00
2023-01-02T00:53:03.635Z,99.90
2023-01-02T00:55:31.740Z,99.90
2023-01-02T00:57:59.837Z,99.90
2023-01-02T01:00:29.426Z,99.90
2023-01-02T01:02:58.085Z,99.90
2023-01-02T01:05:26.453Z,99.90
2023-01-02T01:07:55.555Z,99.90
2023-01-02T01:10:24.134Z,99.90
2023-01-02T01:12:52.251Z,99.90
2023-01-02T01:15:20.467Z,99.90
2023-01-02T01:17:49.977Z,99.90
2023-01-02T01:20:18.198Z,99.90
2023-01-02T01:22:46.442Z,99.90
2023-01-02T01:25:14.539Z,99.90
2023-01-02T01:27:42.679Z,99.90
2023-01-02T01:30:11.649Z,99.90
2023-01-02T01:32:39.744Z,99.90
2023-01-02T01:35:09.721Z,99.90
2023-01-02T01:37:39.901Z,99.90
2023-01-02T01:40:09.108Z,99.90
2023-01-02T01:42:37.317Z,1.00
2023-01-02T01:45:07.656Z,99.90
2023-01-02T01:47:38.913Z,99.90
2023-01-02T01:50:10.380Z,99.90
2023-01-02T01:52:40.962Z,99.90
2023-01-02T01:57:40.301Z,99.90
2023-01-02T02:00:09.852Z,1.00
2023-01-02T02:02:38.121Z,99.90
2023-01-02T02:05:07.126Z,99.90
2023-01-02T02:07:36.669Z,99.90
2023-01-02T02:10:05.864Z,99.90
2023-01-02T02:12:34.594Z,99.90
2023-01-02T02:15:02.737Z,1.00
2023-01-02T02:17:45.499Z,1.00
2023-01-02T02:20:24.949Z,1.00
2023-01-02T02:23:34.811Z,1.00
2023-01-02T02:26:32.848Z,1.00
2023-01-02T02:29:13.031Z,1.00
2023-01-02T02:31:45.019Z,1.00
2023-01-02T02:36:46.358Z,99.90
2023-01-02T02:41:47.045Z,1.00
2023-01-02T02:44:21.928Z,1.00
2023-01-02T02:46:53.298Z,1.00
2023-01-02T02:49:25.850Z,1.00
2023-01-02T02:51:57.450Z,1.00
2023-01-02T02:54:28.135Z,1.00
2023-01-02T02:56:56.303Z,1.00
2023-01-02T02:59:24.415Z,1.00
2023-01-02T03:01:53.977Z,1.00
2023-01-02T03:04:23.110Z,1.00
2023-01-02T03:07:02.553Z,1.00
2023-01-02T03:09:37.899Z,1.00
2023-01-02T03:12:10.907Z,1.00
2023-01-02T03:14:41.723Z,1.00
2023-01-02T03:17:16.551Z,1.00
2023-01-02T03:19:46.245Z,1.00
2023-01-02T03:22:16.056Z,1.00
2023-01-02T03:24:44.342Z,1.00
2023-01-02T03:27:14.224Z,1.00
2023-01-02T03:29:44.199Z,1.00
2023-01-02T03:32:15.375Z,1.00
2023-01-02T03:34:43.528Z,99.90
2023-01-02T03:37:13.071Z,99.90
2023-01-02T03:39:42.811Z,1.00
2023-01-02T03:42:13.063Z,1.00
2023-01-02T03:44:43.775Z,1.00
2023-01-02T03:47:27.897Z,1.00
2023-01-02T03:49:58.049Z,1.00
2023-01-02T03:52:26.364Z,99.90
2023-01-02T03:54:54.728Z,1.00
2023-01-02T03:57:26.275Z,1.00
2023-01-02T03:59:58.481Z,99.90
2023-01-02T04:02:30.135Z,82.20
2023-01-02T04:04:59.614Z,99.90
2023-01-02T04:07:29.053Z,99.90
2023-01-02T04:09:57.461Z,99.90
2023-01-02T04:12:25.639Z,1.00
2023-01-02T04:14:55.605Z,1.00
2023-01-02T04:17:23.840Z,97.00
2023-01-02T04:19:53.882Z,99.90
2023-01-02T04:22:23.154Z,1.00
2023-01-02T04:24:54.619Z,1.00
2023-01-02T04:27:24.787Z,99.90
2023-01-02T04:29:52.971Z,99.90
2023-01-02T04:32:21.706Z,99.90
2023-01-02T04:34:49.831Z,1.00
2023-01-02T04:37:31.789Z,99.90
2023-01-02T04:40:00.941Z,99.90
2023-01-02T04:42:29.157Z,1.00
2023-01-02T04:44:57.338Z,1.00
2023-01-02T04:47:25.459Z,99.90
2023-01-02T04:49:53.648Z,99.90
2023-01-02T04:52:21.819Z,1.00
2023-01-02T04:54:51.370Z,99.90
2023-01-02T04:57:19.511Z,22.60
2023-01-02T04:59:47.590Z,1.00
2023-01-02T05:02:15.787Z,1.00
2023-01-02T05:04:44.136Z,1.00
2023-01-02T05:07:12.261Z,99.90
2023-01-02T05:09:40.388Z,99.90
2023-01-02T05:12:09.987Z,99.90
2023-01-02T05:14:38.080Z,99.90
2023-01-02T05:17:06.230Z,99.90
2023-01-02T05:19:34.316Z,99.90
2023-01-02T05:22:20.206Z,99.90
2023-01-02T05:24:48.308Z,34.90
2023-01-02T05:27:17.758Z,99.90
2023-01-02T05:29:45.922Z,99.90
2023-01-02T05:32:14.038Z,99.90
2023-01-02T05:34:42.151Z,99.90
2023-01-02T05:37:10.303Z,99.90
2023-01-02T05:39:38.477Z,99.90
2023-01-02T05:42:06.893Z,99.90
2023-01-02T05:44:36.402Z,99.90
2023-01-02T05:47:04.547Z,99.90
2023-01-02T05:49:32.764Z,99.90
2023-01-02T05:52:00.854Z,99.90
2023-01-02T05:54:28.971Z,99.90
2023-01-02T05:56:57.965Z,1.00
2023-01-02T05:59:26.058Z,92.10
2023-01-02T06:01:55.770Z,99.90
2023-01-02T06:04:23.974Z,99.90
2023-01-02T06:06:52.178Z,41.40
2023-01-02T06:09:20.236Z,99.90
2023-01-02T06:11:48.397Z,2.10
2023-01-02T06:14:16.503Z,99.90
2023-01-02T06:16:44.592Z,1.00
2023-01-02T06:19:14.148Z,99.90
2023-01-02T06:21:42.256Z,99.90
2023-01-02T06:24:10.667Z,99.90
2023-01-02T06:26:38.723Z,99.90
2023-01-02T06:29:06.982Z,99.90
2023-01-02T06:31:37.993Z,99.90
2023-01-02T06:34:08.520Z,1.00
2023-01-02T06:36:38.060Z,99.90
2023-01-02T06:39:06.197Z,99.90
2023-01-02T06:41:34.642Z,99.90
2023-01-02T06:44:02.776Z,99.90
2023-01-02T06:46:30.851Z,99.90
2023-01-02T06:48:58.953Z,99.90
2023-01-02T06:51:27.089Z,99.90
2023-01-02T06:53:56.962Z,99.90
2023-01-02T06:56:25.239Z,99.90
2023-01-02T06:58:53.308Z,99.90
2023-01-02T07:01:22.904Z,99.90
2023-01-02T07:03:51.114Z,99.90
2023-01-02T07:06:20.364Z,99.90
2023-01-02T07:08:48.556Z,99.90
2023-01-02T07:11:19.481Z,99.90
2023-01-02T07:13:48.262Z,99.90
2023-01-02T07:16:17.248Z,99.90
2023-01-02T07:18:45.426Z,1.00
2023-01-02T07:21:13.744Z,1.00
2023-01-02T07:23:42.665Z,1.00
2023-01-02T07:26:10.992Z,1.00
2023-01-02T07:28:40.573Z,1.00
2023-01-02T07:31:09.282Z,1.00
2023-01-02T07:33:37.807Z,1.00
2023-01-02T07:36:07.094Z,1.00
2023-01-02T07:38:35.485Z,1.00
2023-01-02T07:41:03.576Z,7.50
2023-01-02T07:43:31.661Z,1.00
2023-01-02T07:46:04.923Z,1.00
2023-01-02T07:48:33.091Z,34.20
2023-01-02T07:51:02.095Z,36.30
2023-01-02T07:53:30.375Z,99.90
2023-01-02T07:55:58.618Z,99.90
2023-01-02T07:58:26.752Z,99.90
2023-01-02T08:00:59.818Z,1.00
2023-01-02T08:03:32.981Z,99.90
2023-01-02T08:06:04.575Z,1.00
2023-01-02T08:08:32.661Z,1.00
2023-01-02T08:11:00.666Z,1.00
2023-01-02T08:13:28.827Z,99.90
2023-01-02T08:15:56.860Z,99.90
2023-01-02T08:18:24.950Z,1.00
2023-01-02T08:20:56.478Z,1.00
2023-01-02T08:23:24.555Z,99.90
2023-01-02T08:25:57.382Z,1.00
2023-01-02T08:28:25.781Z,1.00
2023-01-02T08:30:53.824Z,99.90
2023-01-02T08:33:21.936Z,99.90
2023-01-02T08:35:50.048Z,99.90
2023-01-02T08:38:19.848Z,99.90
2023-01-02T08:40:47.900Z,99.90
2023-01-02T08:43:16.380Z,99.90
2023-01-02T08:45:44.548Z,1.00
2023-01-02T08:48:20.639Z,99.90
2023-01-02T08:50:49.943Z,99.90
2023-01-02T08:53:19.564Z,99.90
2023-01-02T08:55:47.613Z,1.00
2023-01-02T08:58:15.684Z,1.00
2023-01-02T09:00:43.921Z,1.00
2023-01-02T09:03:12.090Z,1.00
2023-01-02T09:05:40.248Z,99.90
2023-01-02T09:08:08.314Z,99.90
2023-01-02T09:10:37.742Z,99.90
2023-01-02T09:13:05.878Z,1.00
2023-01-02T09:15:33.966Z,99.90
2023-01-02T09:18:02.285Z,99.90
2023-01-02T09:20:30.353Z,91.60
2023-01-02T09:22:58.539Z,99.90
2023-01-02T09:25:26.653Z,54.60
2023-01-02T09:27:56.099Z,1.00
2023-01-02T09:30:24.301Z,1.00
2023-01-02T09:32:52.457Z,99.90
2023-01-02T09:35:20.517Z,99.90
2023-01-02T09:37:48.681Z,1.00
2023-01-02T09:40:16.780Z,1.00
2023-01-02T09:42:44.892Z,1.00
2023-01-02T09:45:14.591Z,99.90
2023-01-02T09:47:42.654Z,99.90
2023-01-02T09:50:12.568Z,99.90
2023-01-02T09:52:42.942Z,99.90
2023-01-02T09:55:15.783Z,50.40
2023-01-02T09:57:46.790Z,11.00
2023-01-02T10:00:19.916Z,1.00
2023-01-02T10:02:56.535Z,1.00
2023-01-02T10:06:03.874Z,1.00
2023-01-02T10:08:34.451Z,1.00
2023-01-02T10:11:09.516Z,99.90
2023-01-02T10:16:31.607Z,99.90
2023-01-02T10:19:00.985Z,99.90
2023-01-02T10:21:30.849Z,99.90
2023-01-02T10:24:02.264Z,99.90
2023-01-02T10:26:32.484Z,99.90
2023-01-02T10:29:03.602Z,99.90
2023-01-02T10:31:35.430Z,99.90
2023-01-02T10:34:03.945Z,99.90
2023-01-02T10:36:34.119Z,99.90
2023-01-02T10:39:04.281Z,99.90
2023-01-02T10:41:32.358Z,99.90
2023-01-02T10:44:01.425Z,93.90
2023-01-02T10:46:32.179Z,1.00
2023-01-02T10:49:00.258Z,25.50
2023-01-02T10:51:28.348Z,53.80
2023-01-02T10:54:03.437Z,1.00
2023-01-02T10:56:32.871Z,1.00
2023-01-02T10:59:00.913Z,1.00
2023-01-02T11:01:29.090Z,1.00
2023-01-02T11:04:14.769Z,27.70
2023-01-02T11:06:52.357Z,90.10
2023-01-02T11:09:21.530Z,1.00
2023-01-02T11:11:53.600Z,99.90
2023-01-02T11:14:28.327Z,99.90
2023-01-02T11:16:59.630Z,1.00
2023-01-02T11:19:29.945Z,1.00
2023-01-02T11:21:58.296Z,1.00
2023-01-02T11:24:28.577Z,21.20
2023-01-02T11:26:56.960Z,94.60
2023-01-02T11:29:28.938Z,1.00
2023-01-02T11:31:58.473Z,1.00
2023-01-02T11:34:34.658Z,1.00
2023-01-02T11:39:35.795Z,1.00
2023-01-02T11:42:29.858Z,1.00
2023-01-02T11:44:59.270Z,1.00
2023-01-02T11:47:32.118Z,1.00
2023-01-02T11:50:01.587Z,1.00
2023-01-02T11:52:33.678Z,1.00
2023-01-02T11:55:04.567Z,1.00
2023-01-02T11:57:37.121Z,1.00
2023-01-02T12:00:06.358Z,1.00
2023-01-02T12:02:37.336Z,1.00
2023-01-02T12:05:10.222Z,1.00
2023-01-02T12:07:43.553Z,1.00
2023-01-02T12:10:22.042Z,1.00
2023-01-02T12:15:36.631Z,99.90
2023-01-02T12:18:09.405Z,99.90
2023-01-02T12:20:42.168Z,99.90
2023-01-02T12:23:19.307Z,99.90
2023-01-02T12:25:52.365Z,99.90
2023-01-02T12:28:35.651Z,99.90
2023-01-02T12:31:16.341Z,99.90
2023-01-02T12:33:46.355Z,99.90
2023-01-02T12:36:22.530Z,99.90
2023-01-02T12:39:00.414Z,99.90
2023-01-02T12:41:30.688Z,99.90
2023-01-02T12:44:17.797Z,99.90
2023-01-02T12:47:13.920Z,99.90
2023-01-02T12:49:53.043Z,99.90
2023-01-02T12:52:29.732Z,99.90
2023-01-02T12:55:04.723Z,99.90
2023-01-02T12:57:36.036Z,99.90
2023-01-02T13:00:19.041Z,99.90
2023-01-02T13:03:22.380Z,99.90
2023-01-02T13:05:53.958Z,99.90
2023-01-02T13:08:26.653Z,99.90
2023-01-02T13:10:54.737Z,99.90
2023-01-02T13:13:23.871Z,99.90
2023-01-02T13:15:51.939Z,99.90
2023-01-02T13:18:22.060Z,99.90
2023-01-02T13:20:53.885Z,99.90
2023-01-02T13:23:30.706Z,99.90
2023-01-02T13:26:01.011Z,99.90
2023-01-02T13:28:29.145Z,99.90
2023-01-02T13:31:27.212Z,99.90
2023-01-02T13:33:50.344Z,99.90
2023-01-02T13:36:23.519Z,99.90
2023-01-02T13:38:54.575Z,99.90
2023-01-02T13:41:22.637Z,99.90
2023-01-02T13:43:53.625Z,99.90
2023-01-02T13:46:53.438Z,99.90
2023-01-02T13:49:15.577Z,99.90
2023-01-02T13:51:43.632Z,99.90
2023-01-02T13:54:18.179Z,99.90
2023-01-02T13:57:16.827Z,99.90
2023-01-02T13:59:52.339Z,99.90
2023-01-02T14:02:22.476Z,99.90
2023-01-02T14:04:50.899Z,99.90
2023-01-02T14:07:44.389Z,99.90
2023-01-02T14:10:30.206Z,99.90
2023-01-02T14:13:01.324Z,99.90
2023-01-02T14:15:29.552Z,99.90
2023-01-02T14:18:03.832Z,99.90
2023-01-02T14:20:32.446Z,99.90
2023-01-02T14:23:01.996Z,99.90
2023-01-02T14:25:31.818Z,99.90
2023-01-02T14:28:00.490Z,99.90
2023-01-02T14:30:32.419Z,99.90
2023-01-02T14:33:00.939Z,99.90
2023-01-02T14:35:31.941Z,99.90
2023-01-02T14:38:09.258Z,99.90
2023-01-02T14:40:39.917Z,99.90
2023-01-02T14:43:28.418Z,99.90
2023-01-02T14:45:58.868Z,99.90
2023-01-02T14:48:31.631Z,99.90
2023-01-02T14:51:02.457Z,1.00
2023-01-02T14:53:32.398Z,1.00
2023-01-02T14:56:04.051Z,1.00
2023-01-02T14:58:37.185Z,1.00
2023-01-02T15:01:05.496Z,1.00
2023-01-02T15:03:36.150Z,1.00
2023-01-02T15:06:06.415Z,1.00
2023-01-02T15:08:36.960Z,1.00
2023-01-02T15:11:33.198Z,1.00
2023-01-02T15:14:05.270Z,1.00
2023-01-02T15:16:35.621Z,1.00
2023-01-02T15:19:03.743Z,1.00
2023-01-02T15:21:31.839Z,1.00
2023-01-02T15:24:02.074Z,1.00
2023-01-02T15:26:34.705Z,1.00
2023-01-02T15:29:03.827Z,1.00
2023-01-02T15:31:32.022Z,1.00
2023-01-02T15:34:00.944Z,1.00
2023-01-02T15:36:35.972Z,1.00
2023-01-02T15:39:08.860Z,1.00
2023-01-02T15:41:44.340Z,1.00
2023-01-02T15:44:30.403Z,1.00
2023-01-02T15:46:58.626Z,1.00
2023-01-02T15:49:26.719Z,1.00
2023-01-02T15:51:57.509Z,1.00
2023-01-02T15:54:27.237Z,1.00
2023-01-02T15:56:56.893Z,1.00
2023-01-02T15:59:26.855Z,1.00
2023-01-02T16:01:55.075Z,1.00
2023-01-02T16:04:27.375Z,1.00
2023-01-02T16:06:56.022Z,1.00
2023-01-02T16:09:25.868Z,1.00
2023-01-02T16:11:57.460Z,1.00
2023-01-02T16:14:31.331Z,1.00
2023-01-02T16:17:02.453Z,1.00
2023-01-02T16:19:34.005Z,1.00
2023-01-02T16:22:57.574Z,1.00
2023-01-02T16:26:15.143Z,1.00
2023-01-02T16:28:45.176Z,1.00
2023-01-02T16:31:14.399Z,1.00
2023-01-02T16:33:43.257Z,1.00
2023-01-02T16:36:19.408Z,1.00
2023-01-02T16:38:48.572Z,1.00
2023-01-02T16:41:44.569Z,1.00
2023-01-02T16:44:15.590Z,1.00
2023-01-02T16:46:48.977Z,1.00
2023-01-02T16:49:18.638Z,1.00
2023-01-02T16:51:47.517Z,1.00
2023-01-02T16:54:16.119Z,18.50
2023-01-02T16:56:44.493Z,30.50
2023-01-02T16:59:14.392Z,22.60
2023-01-02T17:01:42.802Z,11.70
2023-01-02T17:04:12.677Z,42.10
2023-01-02T17:09:09.801Z,56.80
2023-01-02T17:16:57.347Z,81.10
2023-01-02T17:19:25.872Z,91.20
2023-01-02T17:21:54.299Z,99.90
2023-01-02T17:24:22.792Z,99.90
2023-01-02T17:26:51.149Z,99.90
2023-01-02T17:29:19.572Z,99.90
2023-01-02T17:31:49.804Z,99.90
2023-01-02T17:34:18.268Z,99.90
2023-01-02T17:36:46.790Z,99.90
2023-01-02T17:39:15.483Z,99.90
2023-01-02T17:41:43.839Z,99.90
2023-01-02T17:44:12.219Z,99.90
2023-01-02T17:49:30.190Z,99.90
2023-01-02T17:51:58.589Z,99.90
2023-01-02T17:54:26.846Z,99.90
2023-01-02T17:56:55.251Z,99.90
2023-01-02T17:59:23.567Z,99.90
2023-01-02T18:01:52.065Z,99.90
2023-01-02T18:04:20.495Z,99.90
2023-01-02T18:06:50.180Z,99.90
2023-01-02T18:09:18.676Z,99.90
2023-01-02T18:11:47.105Z,99.90
2023-01-02T18:14:18.460Z,99.90
2023-01-02T18:16:47.284Z,99.90
2023-01-02T18:19:17.249Z,99.90
2023-01-02T18:21:45.875Z,99.90
2023-01-02T18:24:17.228Z,99.90
2023-01-02T18:26:45.537Z,99.90
2023-01-02T18:29:24.679Z,99.90
2023-01-02T18:31:53.092Z,99.90
2023-01-02T18:37:18.120Z,99.90
2023-01-02T18:39:47.832Z,99.90
2023-01-02T18:42:18.886Z,99.90
2023-01-02T18:44:47.147Z,99.90
2023-01-02T18:47:23.442Z,99.90
2023-01-02T18:49:51.752Z,99.90
2023-01-02T18:52:25.797Z,99.90
2023-01-02T18:54:59.981Z,99.90
2023-01-02T18:57:34.328Z,99.90
2023-01-02T19:00:14.004Z,99.90
2023-01-02T19:02:54.788Z,99.90
2023-01-02T19:05:25.965Z,99.90
2023-01-02T19:07:55.897Z,99.90
2023-01-02T19:10:37.097Z,99.90
2023-01-02T19:13:08.280Z,1.00
2023-01-02T19:15:40.607Z,99.90
2023-01-02T19:18:26.888Z,1.00
2023-01-02T19:21:00.479Z,1.00
2023-01-02T19:23:31.083Z,99.90
2023-01-02T19:26:08.639Z,99.90
2023-01-02T19:28:37.182Z,99.90
2023-01-02T19:31:12.172Z,99.90
2023-01-02T19:33:41.318Z,99.90
2023-01-02T19:36:15.231Z,99.90
2023-01-02T19:38:43.635Z,99.90
2023-01-02T19:41:13.474Z,99.90
2023-01-02T19:43:41.942Z,99.90
2023-01-02T19:46:10.317Z,99.90
2023-01-02T19:48:38.654Z,99.90
2023-01-02T19:51:07.289Z,99.90
2023-01-02T19:53:35.642Z,99.90
2023-01-02T19:56:03.935Z,99.90
2023-01-02T19:58:33.655Z,99.90
2023-01-02T20:01:02.026Z,99.90
2023-01-02T20:03:30.552Z,99.90
2023-01-02T20:05:58.976Z,99.90
2023-01-02T20:08:27.983Z,99.90
2023-01-02T20:10:56.348Z,99.90
2023-01-02T20:13:24.714Z,99.90
2023-01-02T20:15:54.450Z,99.90
2023-01-02T20:18:22.764Z,99.90
2023-01-02T20:20:51.010Z,99.90
2023-01-02T20:23:19.366Z,99.90
2023-01-02T20:25:47.633Z,99.90
2023-01-02T20:28:15.904Z,99.90
2023-01-02T20:30:44.240Z,99.90
2023-01-02T20:33:14.429Z,99.90
2023-01-02T20:35:42.713Z,99.90
2023-01-02T20:38:10.988Z,99.90
2023-01-02T20:40:39.551Z,99.90
2023-01-02T20:43:07.848Z,99.90
2023-01-02T20:45:36.112Z,99.90
2023-01-02T20:48:04.550Z,1.00
2023-01-02T20:50:34.183Z,99.90
2023-01-02T20:53:02.595Z,1.00
2023-01-02T20:55:30.917Z,1.00
2023-01-02T20:57:59.268Z,1.00
2023-01-02T21:00:28.726Z,1.00
2023-01-02T21:02:57.258Z,1.00
2023-01-02T21:05:25.745Z,1.00
2023-01-02T21:07:55.464Z,1.00
2023-01-02T21:10:23.736Z,1.00
2023-01-02T21:13:10.966Z,1.00
2023-01-02T21:15:45.192Z,1.00
2023-01-02T21:18:16.036Z,1.00
2023-01-02T21:20:46.600Z,1.00
2023-01-02T21:23:16.824Z,1.00
2023-01-02T21:25:45.083Z,1.00
2023-01-02T21:28:13.578Z,1.00
2023-01-02T21:30:43.617Z,1.00
2023-01-02T21:33:11.979Z,1.00
2023-01-02T21:35:41.287Z,1.00
2023-01-02T21:38:09.731Z,1.00
2023-01-02T21:40:39.652Z,1.00
2023-01-02T21:43:07.969Z,1.00
2023-01-02T21:45:36.254Z,1.00
2023-01-02T21:48:04.553Z,99.90
2023-01-02T21:50:32.918Z,1.00
2023-01-02T21:53:01.291Z,1.00
2023-01-02T21:55:29.618Z,1.00
2023-01-02T21:58:15.328Z,99.90
2023-01-02T22:00:43.849Z,99.90
2023-01-02T22:03:12.301Z,99.90
2023-01-02T22:05:40.786Z,1.00
2023-01-02T22:08:09.070Z,99.90
2023-01-02T22:10:37.384Z,1.00
2023-01-02T22:13:07.217Z,1.00
2023-01-02T22:15:35.593Z,1.00
2023-01-02T22:18:03.837Z,1.00
2023-01-02T22:20:32.322Z,1.00
2023-01-02T22:23:00.625Z,1.00
2023-01-02T22:25:28.962Z,1.00
2023-01-02T22:27:57.267Z,1.00
2023-01-02T22:30:34.041Z,1.00
2023-01-02T22:33:02.954Z,1.00
2023-01-02T22:35:31.265Z,1.00
2023-01-02T22:37:59.838Z,1.00
2023-01-02T22:43:02.037Z,1.00
2023-01-02T22:45:34.632Z,1.00
2023-01-02T22:48:04.645Z,1.00
2023-01-02T22:50:36.643Z,1.00
2023-01-02T22:53:04.941Z,1.00
2023-01-02T22:55:33.183Z,31.80
2023-01-02T22:58:01.505Z,52.00
2023-01-02T23:00:31.189Z,75.20
2023-01-02T23:02:59.483Z,55.70
2023-01-02T23:05:27.782Z,74.80
2023-01-02T23:07:56.118Z,99.90
2023-01-02T23:10:24.470Z,99.90
2023-01-02T23:12:52.865Z,99.90
2023-01-02T23:15:21.239Z,99.90
2023-01-02T23:18:08.602Z,99.90
2023-01-02T23:20:38.795Z,99.90
2023-01-02T23:23:07.659Z,99.90
2023-01-02T23:25:35.958Z,99.90
2023-01-02T23:28:04.230Z,99.90
2023-01-02T23:30:32.556Z,99.90
2023-01-02T23:33:02.322Z,99.90
2023-01-02T23:35:30.595Z,99.90
2023-01-02T23:37:58.976Z,99.90
2023-01-02T23:40:33.865Z,99.90
2023-01-02T23:43:02.523Z,99.90
2023-01-02T23:45:30.792Z,99.90
2023-01-02T23:47:59.118Z,99.90
2023-01-02T23:50:28.775Z,99.90
2023-01-02T23:52:57.030Z,99.90
2023-01-02T23:55:25.313Z,99.90
2023-01-02T23:57:53.562Z,99.90
